sensor_id;sensor_type;location;lat;lon;timestamp;P1;durP1;ratioP1;P2;durP2;ratioP2
19776;SDS011;10047;42.490;26.012;2023-04-24T00:00:19;14.45;;;8.23;;
19776;SDS011;10047;42.490;26.012;2023-04-24T00:02:45;10.07;;;8.35;;
19776;SDS011;10047;42.490;26.012;2023-04-24T00:05:12;12.32;;;7.80;;
19776;SDS011;10047;42.490;26.012;2023-04-24T00:07:38;13.85;;;8.15;;
19776;SDS011;10047;42.490;26.012;2023-04-24T00:10:05;12.18;;;9.00;;
19776;SDS011;10047;42.490;26.012;2023-04-24T00:12:31;15.40;;;8.80;;
19776;SDS011;10047;42.490;26.012;2023-04-24T00:14:57;15.80;;;8.68;;
19776;SDS011;10047;42.490;26.012;2023-04-24T00:17:22;11.15;;;8.02;;
19776;SDS011;10047;42.490;26.012;2023-04-24T00:19:48;13.43;;;8.23;;
19776;SDS011;10047;42.490;26.012;2023-04-24T00:22:17;15.50;;;9.05;;
19776;SDS011;10047;42.490;26.012;2023-04-24T00:24:45;16.88;;;8.77;;
19776;SDS011;10047;42.490;26.012;2023-04-24T00:27:11;15.45;;;8.48;;
19776;SDS011;10047;42.490;26.012;2023-04-24T00:29:36;15.13;;;8.73;;
19776;SDS011;10047;42.490;26.012;2023-04-24T00:32:01;17.70;;;8.93;;
19776;SDS011;10047;42.490;26.012;2023-04-24T00:34:27;13.98;;;8.80;;
19776;SDS011;10047;42.490;26.012;2023-04-24T00:36:53;13.70;;;8.48;;
19776;SDS011;10047;42.490;26.012;2023-04-24T00:39:19;15.20;;;8.88;;
19776;SDS011;10047;42.490;26.012;2023-04-24T00:41:52;11.40;;;8.43;;
19776;SDS011;10047;42.490;26.012;2023-04-24T00:44:18;15.02;;;9.00;;
19776;SDS011;10047;42.490;26.012;2023-04-24T00:46:44;17.02;;;9.25;;
19776;SDS011;10047;42.490;26.012;2023-04-24T00:49:11;15.07;;;9.40;;
19776;SDS011;10047;42.490;26.012;2023-04-24T00:51:37;13.07;;;9.50;;
19776;SDS011;10047;42.490;26.012;2023-04-24T00:54:02;16.42;;;11.30;;
19776;SDS011;10047;42.490;26.012;2023-04-24T00:56:28;20.40;;;14.25;;
19776;SDS011;10047;42.490;26.012;2023-04-24T00:58:54;20.23;;;14.70;;
19776;SDS011;10047;42.490;26.012;2023-04-24T01:01:21;24.27;;;15.30;;
19776;SDS011;10047;42.490;26.012;2023-04-24T01:03:47;22.75;;;15.77;;
19776;SDS011;10047;42.490;26.012;2023-04-24T01:06:16;22.17;;;15.88;;
19776;SDS011;10047;42.490;26.012;2023-04-24T01:08:41;29.00;;;16.73;;
19776;SDS011;10047;42.490;26.012;2023-04-24T01:11:12;26.17;;;16.25;;
19776;SDS011;10047;42.490;26.012;2023-04-24T01:13:38;28.23;;;16.27;;
19776;SDS011;10047;42.490;26.012;2023-04-24T01:16:04;26.02;;;16.80;;
19776;SDS011;10047;42.490;26.012;2023-04-24T01:18:30;25.33;;;16.20;;
19776;SDS011;10047;42.490;26.012;2023-04-24T01:20:57;28.40;;;15.98;;
19776;SDS011;10047;42.490;26.012;2023-04-24T01:23:24;23.02;;;16.42;;
19776;SDS011;10047;42.490;26.012;2023-04-24T01:25:49;22.73;;;15.88;;
19776;SDS011;10047;42.490;26.012;2023-04-24T01:28:16;21.23;;;15.05;;
19776;SDS011;10047;42.490;26.012;2023-04-24T01:30:41;22.45;;;15.43;;
19776;SDS011;10047;42.490;26.012;2023-04-24T01:33:08;22.42;;;15.88;;
19776;SDS011;10047;42.490;26.012;2023-04-24T01:35:33;24.67;;;15.98;;
19776;SDS011;10047;42.490;26.012;2023-04-24T01:38:01;29.05;;;16.65;;
19776;SDS011;10047;42.490;26.012;2023-04-24T01:40:26;23.60;;;16.48;;
19776;SDS011;10047;42.490;26.012;2023-04-24T01:42:52;23.23;;;16.38;;
19776;SDS011;10047;42.490;26.012;2023-04-24T01:45:17;25.27;;;16.48;;
19776;SDS011;10047;42.490;26.012;2023-04-24T01:47:43;25.10;;;16.02;;
19776;SDS011;10047;42.490;26.012;2023-04-24T01:50:10;25.75;;;15.43;;
19776;SDS011;10047;42.490;26.012;2023-04-24T01:52:37;17.67;;;13.77;;
19776;SDS011;10047;42.490;26.012;2023-04-24T01:55:03;20.48;;;14.45;;
19776;SDS011;10047;42.490;26.012;2023-04-24T01:57:33;22.67;;;14.77;;
19776;SDS011;10047;42.490;26.012;2023-04-24T01:59:59;20.75;;;15.23;;
19776;SDS011;10047;42.490;26.012;2023-04-24T02:02:25;23.77;;;15.07;;
19776;SDS011;10047;42.490;26.012;2023-04-24T02:04:52;17.98;;;13.50;;
19776;SDS011;10047;42.490;26.012;2023-04-24T02:07:18;19.55;;;13.82;;
19776;SDS011;10047;42.490;26.012;2023-04-24T02:09:44;17.95;;;13.25;;
19776;SDS011;10047;42.490;26.012;2023-04-24T02:12:09;18.27;;;14.18;;
19776;SDS011;10047;42.490;26.012;2023-04-24T02:14:35;19.48;;;13.25;;
19776;SDS011;10047;42.490;26.012;2023-04-24T02:17:00;18.02;;;13.60;;
19776;SDS011;10047;42.490;26.012;2023-04-24T02:19:26;25.10;;;14.45;;
19776;SDS011;10047;42.490;26.012;2023-04-24T02:21:59;19.85;;;14.68;;
19776;SDS011;10047;42.490;26.012;2023-04-24T02:24:25;24.10;;;14.32;;
19776;SDS011;10047;42.490;26.012;2023-04-24T02:26:50;25.35;;;16.30;;
19776;SDS011;10047;42.490;26.012;2023-04-24T02:29:20;23.25;;;16.00;;
19776;SDS011;10047;42.490;26.012;2023-04-24T02:31:45;24.17;;;16.17;;
19776;SDS011;10047;42.490;26.012;2023-04-24T02:34:11;24.25;;;16.10;;
19776;SDS011;10047;42.490;26.012;2023-04-24T02:36:36;27.77;;;17.20;;
19776;SDS011;10047;42.490;26.012;2023-04-24T02:39:01;21.48;;;15.35;;
19776;SDS011;10047;42.490;26.012;2023-04-24T02:41:28;21.83;;;15.60;;
19776;SDS011;10047;42.490;26.012;2023-04-24T02:43:57;23.35;;;15.63;;
19776;SDS011;10047;42.490;26.012;2023-04-24T02:46:23;19.95;;;15.43;;
19776;SDS011;10047;42.490;26.012;2023-04-24T02:48:48;25.65;;;15.73;;
19776;SDS011;10047;42.490;26.012;2023-04-24T02:51:14;19.42;;;15.82;;
19776;SDS011;10047;42.490;26.012;2023-04-24T02:53:39;24.25;;;16.52;;
19776;SDS011;10047;42.490;26.012;2023-04-24T02:56:05;23.40;;;15.82;;
19776;SDS011;10047;42.490;26.012;2023-04-24T02:58:30;22.63;;;15.82;;
19776;SDS011;10047;42.490;26.012;2023-04-24T03:00:55;21.80;;;15.30;;
19776;SDS011;10047;42.490;26.012;2023-04-24T03:03:21;22.52;;;15.95;;
19776;SDS011;10047;42.490;26.012;2023-04-24T03:05:47;20.77;;;15.80;;
19776;SDS011;10047;42.490;26.012;2023-04-24T03:08:12;22.48;;;16.48;;
19776;SDS011;10047;42.490;26.012;2023-04-24T03:10:39;23.25;;;17.35;;
19776;SDS011;10047;42.490;26.012;2023-04-24T03:13:04;23.13;;;16.27;;
19776;SDS011;10047;42.490;26.012;2023-04-24T03:15:30;22.80;;;16.38;;
19776;SDS011;10047;42.490;26.012;2023-04-24T03:17:55;23.55;;;16.85;;
19776;SDS011;10047;42.490;26.012;2023-04-24T03:20:21;31.83;;;17.52;;
19776;SDS011;10047;42.490;26.012;2023-04-24T03:22:47;24.25;;;17.20;;
19776;SDS011;10047;42.490;26.012;2023-04-24T03:25:12;23.77;;;17.13;;
19776;SDS011;10047;42.490;26.012;2023-04-24T03:27:37;22.98;;;17.50;;
19776;SDS011;10047;42.490;26.012;2023-04-24T03:30:04;23.73;;;17.05;;
19776;SDS011;10047;42.490;26.012;2023-04-24T03:32:31;26.00;;;17.52;;
19776;SDS011;10047;42.490;26.012;2023-04-24T03:34:57;28.67;;;16.65;;
19776;SDS011;10047;42.490;26.012;2023-04-24T03:37:22;22.10;;;16.83;;
19776;SDS011;10047;42.490;26.012;2023-04-24T03:39:48;24.98;;;17.52;;
19776;SDS011;10047;42.490;26.012;2023-04-24T03:42:13;25.15;;;17.80;;
19776;SDS011;10047;42.490;26.012;2023-04-24T03:44:38;27.98;;;17.77;;
19776;SDS011;10047;42.490;26.012;2023-04-24T03:47:04;27.42;;;18.63;;
19776;SDS011;10047;42.490;26.012;2023-04-24T03:49:30;26.95;;;18.83;;
19776;SDS011;10047;42.490;26.012;2023-04-24T03:51:55;25.08;;;17.73;;
19776;SDS011;10047;42.490;26.012;2023-04-24T03:54:20;24.52;;;16.80;;
19776;SDS011;10047;42.490;26.012;2023-04-24T03:56:46;23.90;;;16.45;;
19776;SDS011;10047;42.490;26.012;2023-04-24T03:59:11;24.08;;;16.02;;
19776;SDS011;10047;42.490;26.012;2023-04-24T04:01:37;23.67;;;15.30;;
19776;SDS011;10047;42.490;26.012;2023-04-24T04:04:03;21.60;;;16.27;;
19776;SDS011;10047;42.490;26.012;2023-04-24T04:06:29;25.02;;;17.90;;
19776;SDS011;10047;42.490;26.012;2023-04-24T04:08:56;25.13;;;17.02;;
19776;SDS011;10047;42.490;26.012;2023-04-24T04:11:21;25.27;;;17.73;;
19776;SDS011;10047;42.490;26.012;2023-04-24T04:13:48;20.80;;;16.05;;
19776;SDS011;10047;42.490;26.012;2023-04-24T04:16:14;19.08;;;15.02;;
19776;SDS011;10047;42.490;26.012;2023-04-24T04:18:41;19.42;;;14.43;;
19776;SDS011;10047;42.490;26.012;2023-04-24T04:21:07;21.35;;;14.15;;
19776;SDS011;10047;42.490;26.012;2023-04-24T04:23:32;17.48;;;12.98;;
19776;SDS011;10047;42.490;26.012;2023-04-24T04:25:58;18.08;;;13.27;;
19776;SDS011;10047;42.490;26.012;2023-04-24T04:28:23;21.40;;;13.77;;
19776;SDS011;10047;42.490;26.012;2023-04-24T04:30:49;20.35;;;13.63;;
19776;SDS011;10047;42.490;26.012;2023-04-24T04:33:19;24.80;;;14.70;;
19776;SDS011;10047;42.490;26.012;2023-04-24T04:35:45;17.60;;;12.77;;
19776;SDS011;10047;42.490;26.012;2023-04-24T04:38:13;18.88;;;13.27;;
19776;SDS011;10047;42.490;26.012;2023-04-24T04:40:40;19.50;;;12.77;;
19776;SDS011;10047;42.490;26.012;2023-04-24T04:43:05;21.55;;;12.80;;
19776;SDS011;10047;42.490;26.012;2023-04-24T04:45:31;17.23;;;13.27;;
19776;SDS011;10047;42.490;26.012;2023-04-24T04:47:57;17.83;;;12.95;;
19776;SDS011;10047;42.490;26.012;2023-04-24T04:50:25;21.60;;;13.98;;
19776;SDS011;10047;42.490;26.012;2023-04-24T04:52:51;20.27;;;13.43;;
19776;SDS011;10047;42.490;26.012;2023-04-24T04:55:17;18.38;;;13.07;;
19776;SDS011;10047;42.490;26.012;2023-04-24T04:57:44;23.30;;;13.20;;
19776;SDS011;10047;42.490;26.012;2023-04-24T05:00:10;21.05;;;12.63;;
19776;SDS011;10047;42.490;26.012;2023-04-24T05:02:36;20.52;;;13.70;;
19776;SDS011;10047;42.490;26.012;2023-04-24T05:05:02;18.77;;;13.30;;
19776;SDS011;10047;42.490;26.012;2023-04-24T05:07:28;24.25;;;14.63;;
19776;SDS011;10047;42.490;26.012;2023-04-24T05:09:54;26.13;;;15.32;;
19776;SDS011;10047;42.490;26.012;2023-04-24T05:12:19;25.67;;;14.85;;
19776;SDS011;10047;42.490;26.012;2023-04-24T05:14:45;23.35;;;12.95;;
19776;SDS011;10047;42.490;26.012;2023-04-24T05:17:10;19.27;;;12.15;;
19776;SDS011;10047;42.490;26.012;2023-04-24T05:19:36;18.08;;;11.45;;
19776;SDS011;10047;42.490;26.012;2023-04-24T05:22:03;16.98;;;11.25;;
19776;SDS011;10047;42.490;26.012;2023-04-24T05:24:31;18.50;;;11.32;;
19776;SDS011;10047;42.490;26.012;2023-04-24T05:26:57;15.20;;;10.77;;
19776;SDS011;10047;42.490;26.012;2023-04-24T05:29:23;18.10;;;9.98;;
19776;SDS011;10047;42.490;26.012;2023-04-24T05:31:49;18.13;;;10.02;;
19776;SDS011;10047;42.490;26.012;2023-04-24T05:34:15;12.07;;;9.57;;
19776;SDS011;10047;42.490;26.012;2023-04-24T05:36:41;14.02;;;9.73;;
19776;SDS011;10047;42.490;26.012;2023-04-24T05:39:07;13.80;;;9.77;;
19776;SDS011;10047;42.490;26.012;2023-04-24T05:41:33;13.60;;;8.88;;
19776;SDS011;10047;42.490;26.012;2023-04-24T05:43:59;14.07;;;9.65;;
19776;SDS011;10047;42.490;26.012;2023-04-24T05:46:24;14.50;;;8.80;;
19776;SDS011;10047;42.490;26.012;2023-04-24T05:48:50;16.27;;;9.35;;
19776;SDS011;10047;42.490;26.012;2023-04-24T05:51:15;16.08;;;9.68;;
19776;SDS011;10047;42.490;26.012;2023-04-24T05:53:41;16.40;;;9.55;;
19776;SDS011;10047;42.490;26.012;2023-04-24T05:56:06;13.18;;;9.02;;
19776;SDS011;10047;42.490;26.012;2023-04-24T05:58:32;11.13;;;8.60;;
19776;SDS011;10047;42.490;26.012;2023-04-24T06:00:57;15.05;;;8.68;;
19776;SDS011;10047;42.490;26.012;2023-04-24T06:03:23;15.73;;;9.10;;
19776;SDS011;10047;42.490;26.012;2023-04-24T06:05:50;13.05;;;8.98;;
19776;SDS011;10047;42.490;26.012;2023-04-24T06:08:16;17.25;;;8.95;;
19776;SDS011;10047;42.490;26.012;2023-04-24T06:10:41;17.77;;;9.45;;
19776;SDS011;10047;42.490;26.012;2023-04-24T06:13:07;18.42;;;9.10;;
19776;SDS011;10047;42.490;26.012;2023-04-24T06:15:32;13.20;;;8.68;;
19776;SDS011;10047;42.490;26.012;2023-04-24T06:17:58;23.70;;;8.90;;
19776;SDS011;10047;42.490;26.012;2023-04-24T06:20:24;13.73;;;8.80;;
19776;SDS011;10047;42.490;26.012;2023-04-24T06:22:49;14.07;;;8.48;;
19776;SDS011;10047;42.490;26.012;2023-04-24T06:25:15;13.68;;;8.57;;
19776;SDS011;10047;42.490;26.012;2023-04-24T06:27:41;13.52;;;7.97;;
19776;SDS011;10047;42.490;26.012;2023-04-24T06:30:06;12.10;;;8.20;;
19776;SDS011;10047;42.490;26.012;2023-04-24T06:32:32;13.23;;;8.45;;
19776;SDS011;10047;42.490;26.012;2023-04-24T06:34:57;14.60;;;8.50;;
19776;SDS011;10047;42.490;26.012;2023-04-24T06:37:23;11.65;;;8.18;;
19776;SDS011;10047;42.490;26.012;2023-04-24T06:39:48;12.20;;;8.65;;
19776;SDS011;10047;42.490;26.012;2023-04-24T06:42:14;15.40;;;8.43;;
19776;SDS011;10047;42.490;26.012;2023-04-24T06:44:40;19.77;;;8.35;;
19776;SDS011;10047;42.490;26.012;2023-04-24T06:47:09;14.30;;;8.32;;
19776;SDS011;10047;42.490;26.012;2023-04-24T06:49:37;11.00;;;8.23;;
19776;SDS011;10047;42.490;26.012;2023-04-24T06:52:02;10.85;;;6.97;;
19776;SDS011;10047;42.490;26.012;2023-04-24T06:54:29;11.05;;;7.57;;
19776;SDS011;10047;42.490;26.012;2023-04-24T06:56:55;14.35;;;6.82;;
19776;SDS011;10047;42.490;26.012;2023-04-24T06:59:22;16.27;;;8.10;;
19776;SDS011;10047;42.490;26.012;2023-04-24T07:01:48;12.02;;;7.70;;
19776;SDS011;10047;42.490;26.012;2023-04-24T07:04:13;11.02;;;7.40;;
19776;SDS011;10047;42.490;26.012;2023-04-24T07:06:39;13.85;;;7.47;;
19776;SDS011;10047;42.490;26.012;2023-04-24T07:09:04;15.32;;;7.63;;
19776;SDS011;10047;42.490;26.012;2023-04-24T07:11:30;13.13;;;7.05;;
19776;SDS011;10047;42.490;26.012;2023-04-24T07:13:56;13.05;;;7.15;;
19776;SDS011;10047;42.490;26.012;2023-04-24T07:16:22;11.77;;;6.75;;
19776;SDS011;10047;42.490;26.012;2023-04-24T07:18:47;9.85;;;6.88;;
19776;SDS011;10047;42.490;26.012;2023-04-24T07:21:12;9.63;;;6.60;;
19776;SDS011;10047;42.490;26.012;2023-04-24T07:23:38;9.52;;;6.60;;
19776;SDS011;10047;42.490;26.012;2023-04-24T07:26:03;13.57;;;6.32;;
19776;SDS011;10047;42.490;26.012;2023-04-24T07:28:29;13.00;;;6.57;;
19776;SDS011;10047;42.490;26.012;2023-04-24T07:30:58;11.65;;;6.30;;
19776;SDS011;10047;42.490;26.012;2023-04-24T07:33:24;11.43;;;6.40;;
19776;SDS011;10047;42.490;26.012;2023-04-24T07:35:50;11.82;;;6.43;;
19776;SDS011;10047;42.490;26.012;2023-04-24T07:38:16;11.38;;;5.82;;
19776;SDS011;10047;42.490;26.012;2023-04-24T07:40:41;9.10;;;5.20;;
19776;SDS011;10047;42.490;26.012;2023-04-24T07:43:07;12.90;;;5.63;;
19776;SDS011;10047;42.490;26.012;2023-04-24T07:45:32;8.10;;;5.10;;
19776;SDS011;10047;42.490;26.012;2023-04-24T07:48:02;11.00;;;5.35;;
19776;SDS011;10047;42.490;26.012;2023-04-24T07:50:27;10.23;;;5.22;;
19776;SDS011;10047;42.490;26.012;2023-04-24T07:52:52;15.65;;;7.80;;
19776;SDS011;10047;42.490;26.012;2023-04-24T07:55:18;11.35;;;5.28;;
19776;SDS011;10047;42.490;26.012;2023-04-24T07:57:43;8.50;;;4.82;;
19776;SDS011;10047;42.490;26.012;2023-04-24T08:00:09;7.00;;;4.53;;
19776;SDS011;10047;42.490;26.012;2023-04-24T08:02:35;9.25;;;4.57;;
19776;SDS011;10047;42.490;26.012;2023-04-24T08:05:01;12.32;;;5.82;;
19776;SDS011;10047;42.490;26.012;2023-04-24T08:07:28;6.65;;;4.30;;
19776;SDS011;10047;42.490;26.012;2023-04-24T08:09:53;7.63;;;4.70;;
19776;SDS011;10047;42.490;26.012;2023-04-24T08:12:18;9.25;;;4.78;;
19776;SDS011;10047;42.490;26.012;2023-04-24T08:14:44;7.93;;;4.78;;
19776;SDS011;10047;42.490;26.012;2023-04-24T08:17:10;10.30;;;4.78;;
19776;SDS011;10047;42.490;26.012;2023-04-24T08:19:35;11.05;;;5.13;;
19776;SDS011;10047;42.490;26.012;2023-04-24T08:22:00;8.50;;;4.63;;
19776;SDS011;10047;42.490;26.012;2023-04-24T08:24:26;10.77;;;5.18;;
19776;SDS011;10047;42.490;26.012;2023-04-24T08:26:51;10.15;;;5.30;;
19776;SDS011;10047;42.490;26.012;2023-04-24T08:29:19;11.20;;;5.45;;
19776;SDS011;10047;42.490;26.012;2023-04-24T08:31:44;9.50;;;5.15;;
19776;SDS011;10047;42.490;26.012;2023-04-24T08:34:10;10.10;;;5.95;;
19776;SDS011;10047;42.490;26.012;2023-04-24T08:36:36;7.82;;;4.80;;
19776;SDS011;10047;42.490;26.012;2023-04-24T08:39:06;10.80;;;4.93;;
19776;SDS011;10047;42.490;26.012;2023-04-24T08:41:32;9.05;;;4.75;;
19776;SDS011;10047;42.490;26.012;2023-04-24T08:43:59;10.82;;;4.82;;
19776;SDS011;10047;42.490;26.012;2023-04-24T08:46:26;8.27;;;4.35;;
19776;SDS011;10047;42.490;26.012;2023-04-24T08:48:52;8.05;;;3.90;;
19776;SDS011;10047;42.490;26.012;2023-04-24T08:51:17;8.70;;;5.30;;
19776;SDS011;10047;42.490;26.012;2023-04-24T08:53:45;6.13;;;3.95;;
19776;SDS011;10047;42.490;26.012;2023-04-24T08:56:11;10.85;;;4.82;;
19776;SDS011;10047;42.490;26.012;2023-04-24T08:58:37;5.38;;;4.00;;
19776;SDS011;10047;42.490;26.012;2023-04-24T09:01:03;7.95;;;4.60;;
19776;SDS011;10047;42.490;26.012;2023-04-24T09:03:30;7.43;;;4.75;;
19776;SDS011;10047;42.490;26.012;2023-04-24T09:05:56;8.23;;;4.65;;
19776;SDS011;10047;42.490;26.012;2023-04-24T09:08:23;9.48;;;4.55;;
19776;SDS011;10047;42.490;26.012;2023-04-24T09:10:50;6.78;;;4.57;;
19776;SDS011;10047;42.490;26.012;2023-04-24T09:13:16;14.23;;;4.90;;
19776;SDS011;10047;42.490;26.012;2023-04-24T09:15:43;9.13;;;4.10;;
19776;SDS011;10047;42.490;26.012;2023-04-24T09:18:09;7.10;;;4.05;;
19776;SDS011;10047;42.490;26.012;2023-04-24T09:20:34;7.43;;;4.70;;
19776;SDS011;10047;42.490;26.012;2023-04-24T09:23:01;5.97;;;3.90;;
19776;SDS011;10047;42.490;26.012;2023-04-24T09:25:32;6.63;;;4.00;;
19776;SDS011;10047;42.490;26.012;2023-04-24T09:28:04;5.57;;;4.60;;
19776;SDS011;10047;42.490;26.012;2023-04-24T09:30:30;7.10;;;4.70;;
19776;SDS011;10047;42.490;26.012;2023-04-24T09:35:50;6.22;;;4.07;;
19776;SDS011;10047;42.490;26.012;2023-04-24T09:38:16;5.60;;;4.40;;
19776;SDS011;10047;42.490;26.012;2023-04-24T09:40:42;6.95;;;4.18;;
19776;SDS011;10047;42.490;26.012;2023-04-24T09:43:11;6.80;;;4.20;;
19776;SDS011;10047;42.490;26.012;2023-04-24T09:45:37;6.82;;;4.60;;
19776;SDS011;10047;42.490;26.012;2023-04-24T09:48:08;8.85;;;4.60;;
19776;SDS011;10047;42.490;26.012;2023-04-24T09:50:35;6.93;;;4.40;;
19776;SDS011;10047;42.490;26.012;2023-04-24T09:53:04;7.30;;;4.28;;
19776;SDS011;10047;42.490;26.012;2023-04-24T09:57:58;9.77;;;4.77;;
19776;SDS011;10047;42.490;26.012;2023-04-24T10:00:27;10.93;;;4.80;;
19776;SDS011;10047;42.490;26.012;2023-04-24T10:03:01;7.22;;;4.30;;
19776;SDS011;10047;42.490;26.012;2023-04-24T10:05:32;7.78;;;5.10;;
19776;SDS011;10047;42.490;26.012;2023-04-24T10:10:27;11.77;;;6.47;;
19776;SDS011;10047;42.490;26.012;2023-04-24T10:12:53;8.80;;;5.00;;
19776;SDS011;10047;42.490;26.012;2023-04-24T10:15:19;7.90;;;4.50;;
19776;SDS011;10047;42.490;26.012;2023-04-24T10:17:49;8.40;;;4.80;;
19776;SDS011;10047;42.490;26.012;2023-04-24T10:20:19;9.93;;;4.75;;
19776;SDS011;10047;42.490;26.012;2023-04-24T10:22:47;9.15;;;4.43;;
19776;SDS011;10047;42.490;26.012;2023-04-24T10:25:21;7.97;;;4.53;;
19776;SDS011;10047;42.490;26.012;2023-04-24T10:27:49;8.02;;;4.70;;
19776;SDS011;10047;42.490;26.012;2023-04-24T10:30:16;7.10;;;4.85;;
19776;SDS011;10047;42.490;26.012;2023-04-24T10:32:43;6.72;;;4.50;;
19776;SDS011;10047;42.490;26.012;2023-04-24T10:35:09;9.68;;;4.68;;
19776;SDS011;10047;42.490;26.012;2023-04-24T10:37:38;7.57;;;4.60;;
19776;SDS011;10047;42.490;26.012;2023-04-24T10:40:07;10.05;;;4.82;;
19776;SDS011;10047;42.490;26.012;2023-04-24T10:42:35;6.95;;;4.25;;
19776;SDS011;10047;42.490;26.012;2023-04-24T10:45:06;7.97;;;4.97;;
19776;SDS011;10047;42.490;26.012;2023-04-24T10:47:41;8.57;;;4.50;;
19776;SDS011;10047;42.490;26.012;2023-04-24T10:50:10;7.93;;;4.63;;
19776;SDS011;10047;42.490;26.012;2023-04-24T10:52:45;7.60;;;4.38;;
19776;SDS011;10047;42.490;26.012;2023-04-24T10:58:08;5.70;;;4.22;;
19776;SDS011;10047;42.490;26.012;2023-04-24T11:00:43;10.85;;;4.80;;
19776;SDS011;10047;42.490;26.012;2023-04-24T11:03:32;9.25;;;5.10;;
19776;SDS011;10047;42.490;26.012;2023-04-24T11:08:30;8.05;;;4.80;;
19776;SDS011;10047;42.490;26.012;2023-04-24T11:11:17;8.88;;;4.68;;
19776;SDS011;10047;42.490;26.012;2023-04-24T11:16:30;7.30;;;4.80;;
19776;SDS011;10047;42.490;26.012;2023-04-24T11:19:33;6.63;;;4.63;;
19776;SDS011;10047;42.490;26.012;2023-04-24T11:21:59;12.40;;;4.78;;
19776;SDS011;10047;42.490;26.012;2023-04-24T11:27:12;7.88;;;4.72;;
19776;SDS011;10047;42.490;26.012;2023-04-24T11:29:49;8.60;;;4.93;;
19776;SDS011;10047;42.490;26.012;2023-04-24T11:32:25;11.05;;;4.93;;
19776;SDS011;10047;42.490;26.012;2023-04-24T11:35:19;8.23;;;4.88;;
19776;SDS011;10047;42.490;26.012;2023-04-24T11:37:50;7.57;;;4.43;;
19776;SDS011;10047;42.490;26.012;2023-04-24T11:40:19;7.80;;;4.78;;
19776;SDS011;10047;42.490;26.012;2023-04-24T11:42:46;10.52;;;5.00;;
19776;SDS011;10047;42.490;26.012;2023-04-24T11:45:13;8.00;;;4.50;;
19776;SDS011;10047;42.490;26.012;2023-04-24T11:47:41;9.13;;;4.85;;
19776;SDS011;10047;42.490;26.012;2023-04-24T11:50:09;9.68;;;5.32;;
19776;SDS011;10047;42.490;26.012;2023-04-24T11:52:40;6.35;;;4.57;;
19776;SDS011;10047;42.490;26.012;2023-04-24T12:02:43;6.53;;;4.47;;
19776;SDS011;10047;42.490;26.012;2023-04-24T12:05:09;6.55;;;4.53;;
19776;SDS011;10047;42.490;26.012;2023-04-24T12:07:43;9.63;;;4.88;;
19776;SDS011;10047;42.490;26.012;2023-04-24T12:10:09;5.07;;;4.45;;
19776;SDS011;10047;42.490;26.012;2023-04-24T12:12:35;9.38;;;4.40;;
19776;SDS011;10047;42.490;26.012;2023-04-24T12:15:00;8.02;;;5.10;;
19776;SDS011;10047;42.490;26.012;2023-04-24T12:17:28;7.40;;;5.35;;
19776;SDS011;10047;42.490;26.012;2023-04-24T12:19:58;6.15;;;5.43;;
19776;SDS011;10047;42.490;26.012;2023-04-24T12:22:26;7.60;;;4.90;;
19776;SDS011;10047;42.490;26.012;2023-04-24T12:25:02;8.32;;;4.22;;
19776;SDS011;10047;42.490;26.012;2023-04-24T12:27:30;7.07;;;4.72;;
19776;SDS011;10047;42.490;26.012;2023-04-24T12:29:59;11.13;;;5.20;;
19776;SDS011;10047;42.490;26.012;2023-04-24T12:32:26;8.30;;;4.82;;
19776;SDS011;10047;42.490;26.012;2023-04-24T12:34:52;5.57;;;4.53;;
19776;SDS011;10047;42.490;26.012;2023-04-24T12:37:19;10.75;;;5.05;;
19776;SDS011;10047;42.490;26.012;2023-04-24T12:40:05;7.72;;;4.43;;
19776;SDS011;10047;42.490;26.012;2023-04-24T12:42:32;6.30;;;4.65;;
19776;SDS011;10047;42.490;26.012;2023-04-24T12:45:07;10.05;;;4.47;;
19776;SDS011;10047;42.490;26.012;2023-04-24T12:47:33;5.63;;;4.53;;
19776;SDS011;10047;42.490;26.012;2023-04-24T12:49:59;7.00;;;5.00;;
19776;SDS011;10047;42.490;26.012;2023-04-24T12:52:26;11.18;;;4.90;;
19776;SDS011;10047;42.490;26.012;2023-04-24T12:54:53;7.70;;;4.55;;
19776;SDS011;10047;42.490;26.012;2023-04-24T12:57:20;9.95;;;4.57;;
19776;SDS011;10047;42.490;26.012;2023-04-24T12:59:46;6.90;;;4.32;;
19776;SDS011;10047;42.490;26.012;2023-04-24T13:02:11;9.82;;;6.00;;
19776;SDS011;10047;42.490;26.012;2023-04-24T13:04:37;9.07;;;5.18;;
19776;SDS011;10047;42.490;26.012;2023-04-24T13:07:02;11.93;;;4.93;;
19776;SDS011;10047;42.490;26.012;2023-04-24T13:09:28;6.28;;;4.30;;
19776;SDS011;10047;42.490;26.012;2023-04-24T13:11:55;8.18;;;4.57;;
19776;SDS011;10047;42.490;26.012;2023-04-24T13:14:21;10.15;;;5.82;;
19776;SDS011;10047;42.490;26.012;2023-04-24T13:16:47;13.15;;;7.18;;
19776;SDS011;10047;42.490;26.012;2023-04-24T13:19:13;9.80;;;5.75;;
19776;SDS011;10047;42.490;26.012;2023-04-24T13:21:38;15.32;;;10.50;;
19776;SDS011;10047;42.490;26.012;2023-04-24T13:24:04;8.13;;;5.40;;
19776;SDS011;10047;42.490;26.012;2023-04-24T13:26:30;10.23;;;6.35;;
19776;SDS011;10047;42.490;26.012;2023-04-24T13:28:56;11.43;;;6.72;;
19776;SDS011;10047;42.490;26.012;2023-04-24T13:31:21;9.82;;;6.57;;
19776;SDS011;10047;42.490;26.012;2023-04-24T13:33:47;8.90;;;6.13;;
19776;SDS011;10047;42.490;26.012;2023-04-24T13:36:13;10.23;;;7.05;;
19776;SDS011;10047;42.490;26.012;2023-04-24T13:38:38;6.93;;;4.35;;
19776;SDS011;10047;42.490;26.012;2023-04-24T13:41:03;8.20;;;5.28;;
19776;SDS011;10047;42.490;26.012;2023-04-24T13:43:29;10.57;;;5.22;;
19776;SDS011;10047;42.490;26.012;2023-04-24T13:45:54;10.82;;;6.80;;
19776;SDS011;10047;42.490;26.012;2023-04-24T13:48:20;11.88;;;7.18;;
19776;SDS011;10047;42.490;26.012;2023-04-24T13:50:45;8.07;;;4.93;;
19776;SDS011;10047;42.490;26.012;2023-04-24T13:53:13;10.45;;;6.03;;
19776;SDS011;10047;42.490;26.012;2023-04-24T13:55:39;16.02;;;6.53;;
19776;SDS011;10047;42.490;26.012;2023-04-24T13:58:04;10.68;;;4.70;;
19776;SDS011;10047;42.490;26.012;2023-04-24T14:00:30;8.15;;;5.30;;
19776;SDS011;10047;42.490;26.012;2023-04-24T14:02:56;9.80;;;5.70;;
19776;SDS011;10047;42.490;26.012;2023-04-24T14:05:21;9.13;;;5.60;;
19776;SDS011;10047;42.490;26.012;2023-04-24T14:07:47;12.10;;;6.05;;
19776;SDS011;10047;42.490;26.012;2023-04-24T14:10:12;7.70;;;5.32;;
19776;SDS011;10047;42.490;26.012;2023-04-24T14:12:38;7.93;;;5.50;;
19776;SDS011;10047;42.490;26.012;2023-04-24T14:15:03;8.20;;;5.65;;
19776;SDS011;10047;42.490;26.012;2023-04-24T14:17:30;11.23;;;6.07;;
19776;SDS011;10047;42.490;26.012;2023-04-24T14:19:55;10.45;;;5.57;;
19776;SDS011;10047;42.490;26.012;2023-04-24T14:22:22;5.50;;;4.70;;
19776;SDS011;10047;42.490;26.012;2023-04-24T14:24:47;7.82;;;4.78;;
19776;SDS011;10047;42.490;26.012;2023-04-24T14:27:14;9.20;;;4.80;;
19776;SDS011;10047;42.490;26.012;2023-04-24T14:29:39;7.80;;;4.60;;
19776;SDS011;10047;42.490;26.012;2023-04-24T14:32:04;9.00;;;4.90;;
19776;SDS011;10047;42.490;26.012;2023-04-24T14:34:30;6.97;;;4.97;;
19776;SDS011;10047;42.490;26.012;2023-04-24T14:36:55;6.05;;;5.25;;
19776;SDS011;10047;42.490;26.012;2023-04-24T14:39:21;9.10;;;5.07;;
19776;SDS011;10047;42.490;26.012;2023-04-24T14:41:46;9.73;;;4.78;;
19776;SDS011;10047;42.490;26.012;2023-04-24T14:44:12;5.93;;;5.07;;